createdAt,value
2019-05-25T00:00:39.383Z,20.90
2019-05-25T00:02:46.868Z,17.17
2019-05-25T00:04:54.411Z,18.27
2019-05-25T00:07:01.980Z,19.57
2019-05-25T00:09:10.067Z,22.77
2019-05-25T00:11:18.897Z,19.03
2019-05-25T00:13:26.537Z,21.27
2019-05-25T00:15:34.121Z,23.57
2019-05-25T00:17:41.596Z,19.50
2019-05-25T00:19:48.951Z,17.20
2019-05-25T00:21:56.318Z,21.93
2019-05-25T00:24:12.214Z,19.70
2019-05-25T00:26:12.909Z,15.80
2019-05-25T00:28:20.344Z,19.90
2019-05-25T00:30:27.842Z,19.47
2019-05-25T00:32:35.245Z,19.13
2019-05-25T00:34:42.716Z,22.03
2019-05-25T00:36:50.120Z,20.60
2019-05-25T00:38:57.544Z,21.60
2019-05-25T00:41:04.988Z,19.90
2019-05-25T00:43:12.406Z,22.53
2019-05-25T00:45:19.934Z,19.47
2019-05-25T00:47:27.366Z,23.50
2019-05-25T00:49:34.741Z,24.53
2019-05-25T00:51:42.168Z,21.20
2019-05-25T00:53:49.578Z,26.83
2019-05-25T00:55:56.950Z,28.77
2019-05-25T00:58:04.333Z,26.47
2019-05-25T01:00:12.364Z,29.10
2019-05-25T01:02:19.792Z,30.03
2019-05-25T01:04:27.278Z,30.13
2019-05-25T01:06:34.829Z,33.83
2019-05-25T01:08:42.195Z,34.07
2019-05-25T01:10:49.597Z,33.30
2019-05-25T01:12:57.158Z,38.27
2019-05-25T01:15:07.787Z,35.07
2019-05-25T01:17:15.192Z,34.97
2019-05-25T01:19:22.613Z,33.90
2019-05-25T01:21:30.343Z,31.83
2019-05-25T01:23:37.795Z,33.73
2019-05-25T01:25:45.307Z,31.20
2019-05-25T01:27:52.783Z,33.10
2019-05-25T01:30:00.186Z,33.50
2019-05-25T01:32:07.601Z,30.07
2019-05-25T01:34:15.034Z,28.33
2019-05-25T01:36:22.461Z,26.80
2019-05-25T01:38:29.867Z,27.63
2019-05-25T01:40:37.296Z,28.83
2019-05-25T01:42:44.680Z,29.53
2019-05-25T01:44:52.083Z,30.93
2019-05-25T01:46:59.577Z,30.53
2019-05-25T01:49:07.069Z,36.03
2019-05-25T01:51:14.460Z,32.20
2019-05-25T01:53:21.908Z,35.33
2019-05-25T01:55:29.244Z,34.80
2019-05-25T01:57:36.621Z,36.60
2019-05-25T01:59:44.197Z,40.93
2019-05-25T02:01:51.688Z,37.90
2019-05-25T02:03:59.071Z,42.23
2019-05-25T02:06:06.590Z,33.17
2019-05-25T02:08:14.048Z,30.97
2019-05-25T02:10:21.538Z,37.20
2019-05-25T02:12:28.941Z,32.63
2019-05-25T02:14:36.389Z,30.53
2019-05-25T02:16:43.928Z,27.23
2019-05-25T02:18:51.347Z,29.30
2019-05-25T02:20:58.696Z,25.90
2019-05-25T02:23:06.186Z,27.80
2019-05-25T02:25:18.067Z,26.30
2019-05-25T02:27:23.631Z,26.10
2019-05-25T02:29:31.036Z,23.80
2019-05-25T02:31:38.379Z,23.83
2019-05-25T02:33:45.828Z,24.53
2019-05-25T02:35:53.305Z,19.80
2019-05-25T02:38:00.701Z,23.17
2019-05-25T02:40:08.533Z,19.93
2019-05-25T02:42:15.978Z,20.57
2019-05-25T02:44:23.429Z,22.87
2019-05-25T02:46:30.806Z,18.33
2019-05-25T02:48:38.190Z,21.23
2019-05-25T02:50:46.899Z,21.53
2019-05-25T02:52:54.335Z,20.20
2019-05-25T02:55:01.695Z,21.33
2019-05-25T02:57:09.054Z,29.93
2019-05-25T02:59:16.440Z,22.07
2019-05-25T03:01:23.956Z,21.93
2019-05-25T03:03:31.814Z,22.80
2019-05-25T03:05:39.419Z,22.07
2019-05-25T03:07:48.212Z,21.23
2019-05-25T03:09:58.608Z,25.73
2019-05-25T03:12:06.251Z,22.30
2019-05-25T03:14:13.731Z,21.43
2019-05-25T03:16:21.229Z,29.90
2019-05-25T03:18:28.608Z,18.67
2019-05-25T03:20:36.166Z,20.70
2019-05-25T03:22:43.547Z,19.93
2019-05-25T03:24:50.966Z,20.33
2019-05-25T03:26:58.417Z,20.67
2019-05-25T03:29:05.964Z,23.93
2019-05-25T03:31:13.352Z,24.90
2019-05-25T03:33:20.759Z,20.47
2019-05-25T03:35:28.306Z,21.90
2019-05-25T03:37:35.919Z,23.83
2019-05-25T03:39:43.336Z,27.83
2019-05-25T03:41:51.335Z,25.07
2019-05-25T03:43:58.844Z,23.93
2019-05-25T03:46:06.257Z,24.60
2019-05-25T03:48:13.650Z,21.97
2019-05-25T03:50:21.528Z,22.17
2019-05-25T03:52:28.938Z,25.67
2019-05-25T03:54:36.299Z,21.37
2019-05-25T03:56:43.771Z,20.67
2019-05-25T03:58:51.210Z,20.97
2019-05-25T04:00:59.162Z,19.23
2019-05-25T04:03:07.444Z,19.70
2019-05-25T04:05:15.053Z,24.70
2019-05-25T04:07:22.437Z,24.03
2019-05-25T04:09:29.938Z,23.33
2019-05-25T04:11:37.486Z,19.20
2019-05-25T04:13:44.875Z,21.53
2019-05-25T04:15:52.336Z,23.60
2019-05-25T04:17:59.770Z,23.03
2019-05-25T04:20:07.745Z,22.17
2019-05-25T04:22:15.214Z,25.27
2019-05-25T04:24:22.632Z,20.50
2019-05-25T04:26:30.244Z,23.70
2019-05-25T04:28:37.708Z,21.83
2019-05-25T04:30:45.148Z,27.17
2019-05-25T04:32:52.698Z,21.97
2019-05-25T04:35:00.131Z,21.13
2019-05-25T04:37:07.704Z,23.47
2019-05-25T04:39:15.146Z,20.07
2019-05-25T04:41:22.627Z,21.63
2019-05-25T04:43:30.135Z,22.27
2019-05-25T04:45:37.576Z,22.60
2019-05-25T04:47:45.151Z,21.63
2019-05-25T04:49:52.617Z,23.43
2019-05-25T04:52:00.137Z,26.63
2019-05-25T04:54:07.933Z,22.10
2019-05-25T04:56:15.495Z,24.37
2019-05-25T04:58:23.017Z,25.43
2019-05-25T05:00:30.753Z,26.17
2019-05-25T05:02:38.228Z,21.57
2019-05-25T05:04:45.681Z,22.97
2019-05-25T05:06:53.215Z,22.00
2019-05-25T05:09:00.862Z,22.87
2019-05-25T05:11:08.767Z,26.97
2019-05-25T05:13:16.383Z,26.17
2019-05-25T05:15:24.734Z,21.53
2019-05-25T05:17:32.347Z,27.70
2019-05-25T05:19:39.736Z,24.37
2019-05-25T05:21:47.228Z,24.67
2019-05-25T05:23:54.760Z,24.93
2019-05-25T05:26:02.265Z,23.50
2019-05-25T05:28:09.652Z,22.87
2019-05-25T05:30:17.535Z,21.80
2019-05-25T05:32:27.856Z,22.50
2019-05-25T05:34:34.421Z,22.43
2019-05-25T05:36:43.138Z,22.87
2019-05-25T05:38:51.695Z,17.60
2019-05-25T05:41:00.682Z,19.43
2019-05-25T05:43:12.557Z,16.43
2019-05-25T05:45:20.090Z,18.40
2019-05-25T05:47:29.429Z,18.53
2019-05-25T05:49:37.286Z,20.43
2019-05-25T05:51:50.211Z,16.60
2019-05-25T05:53:58.160Z,14.00
2019-05-25T05:56:05.889Z,14.60
2019-05-25T05:58:13.394Z,14.73
2019-05-25T06:00:21.436Z,18.53
2019-05-25T06:02:28.938Z,13.20
2019-05-25T06:04:36.506Z,14.67
2019-05-25T06:06:44.143Z,16.43
2019-05-25T06:08:51.903Z,19.57
2019-05-25T06:10:59.477Z,14.13
2019-05-25T06:13:07.285Z,10.97
2019-05-25T06:15:16.262Z,13.20
2019-05-25T06:17:24.011Z,15.23
2019-05-25T06:19:32.427Z,14.03
2019-05-25T06:21:39.992Z,14.80
2019-05-25T06:23:47.430Z,16.53
2019-05-25T06:25:55.022Z,18.07
2019-05-25T06:28:02.586Z,15.30
2019-05-25T06:30:11.566Z,13.33
2019-05-25T06:32:19.050Z,15.10
2019-05-25T06:34:26.679Z,15.73
2019-05-25T06:36:34.115Z,14.03
2019-05-25T06:38:41.690Z,16.33
2019-05-25T06:40:49.397Z,17.10
2019-05-25T06:42:57.154Z,11.73
2019-05-25T06:45:05.313Z,11.57
2019-05-25T06:47:13.331Z,12.40
2019-05-25T06:49:21.099Z,13.87
2019-05-25T06:51:29.411Z,14.60
2019-05-25T06:53:37.226Z,13.63
2019-05-25T06:55:45.173Z,11.53
2019-05-25T06:57:52.809Z,12.53
2019-05-25T07:00:00.602Z,13.33
2019-05-25T07:02:08.414Z,16.43
2019-05-25T07:04:15.997Z,12.30
2019-05-25T07:06:24.266Z,16.00
2019-05-25T07:08:32.169Z,9.80
2019-05-25T07:10:40.460Z,12.60
2019-05-25T07:12:48.114Z,10.23
2019-05-25T07:14:57.295Z,11.75
2019-05-25T07:17:05.391Z,8.93
2019-05-25T07:19:13.256Z,10.33
2019-05-25T07:21:21.437Z,8.87
2019-05-25T07:23:30.250Z,15.50
2019-05-25T07:25:38.333Z,9.53
2019-05-25T07:27:58.283Z,8.13
2019-05-25T07:29:55.015Z,11.67
2019-05-25T07:32:03.162Z,8.10
2019-05-25T07:34:10.680Z,7.53
2019-05-25T07:36:18.908Z,11.93
2019-05-25T07:38:26.545Z,8.00
2019-05-25T07:40:34.702Z,8.60
2019-05-25T07:42:42.154Z,6.22
2019-05-25T07:44:49.662Z,9.87
2019-05-25T07:46:57.652Z,7.78
2019-05-25T07:49:05.281Z,9.08
2019-05-25T07:51:12.720Z,7.08
2019-05-25T07:53:20.520Z,11.08
2019-05-25T07:55:28.087Z,7.62
2019-05-25T07:57:35.805Z,4.83
2019-05-25T07:59:43.582Z,6.35
2019-05-25T08:01:51.454Z,11.85
2019-05-25T08:03:58.967Z,7.10
2019-05-25T08:06:06.441Z,9.28
2019-05-25T08:08:13.904Z,6.03
2019-05-25T08:10:22.261Z,14.35
2019-05-25T08:12:29.861Z,20.72
2019-05-25T08:14:37.310Z,31.62
2019-05-25T08:16:44.854Z,12.95
2019-05-25T08:18:52.326Z,7.87
2019-05-25T08:20:59.729Z,9.93
2019-05-25T08:23:07.262Z,9.83
2019-05-25T08:25:14.973Z,6.85
2019-05-25T08:27:22.615Z,9.13
2019-05-25T08:29:30.166Z,7.92
2019-05-25T08:31:37.600Z,11.08
2019-05-25T08:33:45.057Z,7.45
2019-05-25T08:35:52.752Z,6.83
2019-05-25T08:38:00.191Z,9.10
2019-05-25T08:40:08.861Z,5.72
2019-05-25T08:42:16.568Z,7.75
2019-05-25T08:44:24.493Z,14.43
2019-05-25T08:46:32.075Z,11.85
2019-05-25T08:48:39.532Z,9.45
2019-05-25T08:50:47.035Z,9.25
2019-05-25T08:52:54.888Z,6.55
2019-05-25T08:55:02.387Z,8.70
2019-05-25T08:57:13.763Z,6.22
2019-05-25T08:59:20.025Z,10.75
2019-05-25T09:01:27.612Z,5.03
2019-05-25T09:03:35.307Z,5.47
2019-05-25T09:05:42.789Z,9.15
2019-05-25T09:07:50.453Z,8.45
2019-05-25T09:09:58.255Z,5.97
2019-05-25T09:12:06.001Z,5.20
2019-05-25T09:14:13.788Z,5.62
2019-05-25T09:16:22.187Z,9.38
2019-05-25T09:18:29.673Z,7.92
2019-05-25T09:20:37.158Z,10.00
2019-05-25T09:22:44.865Z,4.20
2019-05-25T09:24:52.378Z,6.67
2019-05-25T09:26:59.837Z,8.78
2019-05-25T09:29:08.218Z,4.92
2019-05-25T09:31:15.747Z,3.92
2019-05-25T09:33:23.649Z,5.55
2019-05-25T09:35:31.288Z,5.53
2019-05-25T09:37:39.036Z,5.50
2019-05-25T09:39:46.562Z,6.83
2019-05-25T09:41:54.089Z,5.92
2019-05-25T09:44:01.580Z,8.13
2019-05-25T09:46:09.216Z,5.08
2019-05-25T09:48:16.716Z,4.08
2019-05-25T09:50:24.270Z,5.70
2019-05-25T09:52:31.905Z,4.05
2019-05-25T09:54:39.418Z,3.67
2019-05-25T09:56:46.890Z,4.03
2019-05-25T09:58:54.300Z,7.58
2019-05-25T10:01:01.787Z,5.80
2019-05-25T10:03:09.342Z,7.17
2019-05-25T10:05:17.077Z,12.28
2019-05-25T10:07:24.684Z,4.75
2019-05-25T10:09:32.185Z,6.20
2019-05-25T10:11:39.604Z,7.85
2019-05-25T10:13:47.095Z,9.98
2019-05-25T10:15:54.518Z,5.47
2019-05-25T10:18:01.923Z,16.05
2019-05-25T10:20:10.536Z,6.22
2019-05-25T10:22:18.082Z,8.65
2019-05-25T10:24:25.687Z,5.62
2019-05-25T10:26:33.399Z,6.10
2019-05-25T10:28:40.844Z,6.10
2019-05-25T10:30:48.378Z,7.28
2019-05-25T10:32:55.886Z,6.17
2019-05-25T10:35:03.506Z,6.97
2019-05-25T10:37:11.058Z,6.28
2019-05-25T10:39:18.537Z,5.92
2019-05-25T10:41:25.992Z,7.10
2019-05-25T10:43:33.511Z,5.20
2019-05-25T10:45:40.959Z,7.33
2019-05-25T10:47:48.457Z,6.55
2019-05-25T10:49:55.934Z,7.10
2019-05-25T10:52:03.534Z,8.00
2019-05-25T10:54:10.970Z,5.65
2019-05-25T10:56:18.516Z,8.10
2019-05-25T10:58:25.943Z,4.72
2019-05-25T11:00:33.602Z,4.97
2019-05-25T11:02:41.371Z,7.45
2019-05-25T11:04:48.781Z,5.95
2019-05-25T11:06:56.316Z,5.12
2019-05-25T11:09:04.104Z,6.28
2019-05-25T11:11:11.755Z,6.80
2019-05-25T11:13:19.383Z,4.83
2019-05-25T11:15:26.876Z,7.00
2019-05-25T11:17:34.458Z,7.47
2019-05-25T11:19:41.902Z,4.78
2019-05-25T11:21:49.530Z,6.33
2019-05-25T11:23:57.118Z,7.45
2019-05-25T11:26:04.828Z,6.22
2019-05-25T11:28:12.586Z,6.45
2019-05-25T11:30:20.415Z,6.22
2019-05-25T11:32:28.186Z,8.13
2019-05-25T11:34:36.196Z,7.83
2019-05-25T11:36:44.577Z,8.68
2019-05-25T11:38:52.110Z,9.53
2019-05-25T11:40:59.711Z,5.25
2019-05-25T11:43:07.167Z,4.50
2019-05-25T11:45:16.167Z,10.78
2019-05-25T11:47:24.300Z,6.22
2019-05-25T11:49:31.904Z,7.42
2019-05-25T11:51:39.702Z,6.95
2019-05-25T11:53:47.422Z,9.73
2019-05-25T11:55:55.420Z,5.50
2019-05-25T11:58:03.108Z,7.70
2019-05-25T12:00:24.319Z,4.47
2019-05-25T12:02:22.743Z,5.67
2019-05-25T12:04:30.775Z,4.95
2019-05-25T12:06:38.224Z,4.53
2019-05-25T12:08:45.837Z,7.33
2019-05-25T12:10:53.292Z,6.53
2019-05-25T12:13:00.784Z,5.47
2019-05-25T12:15:09.597Z,5.00
2019-05-25T12:17:17.161Z,5.55
2019-05-25T12:19:24.962Z,4.10
2019-05-25T12:21:32.523Z,4.97
2019-05-25T12:23:40.007Z,4.50
2019-05-25T12:25:47.462Z,8.83
2019-05-25T12:27:55.077Z,5.75
2019-05-25T12:30:02.636Z,8.70
2019-05-25T12:32:10.269Z,5.87
2019-05-25T12:34:18.621Z,8.75
2019-05-25T12:36:26.372Z,5.33
2019-05-25T12:38:33.891Z,5.22
2019-05-25T12:40:53.198Z,12.40
2019-05-25T12:42:50.864Z,8.23
2019-05-25T12:44:58.494Z,7.58
2019-05-25T12:47:06.770Z,6.12
2019-05-25T12:49:14.476Z,9.08
2019-05-25T12:51:22.241Z,8.38
2019-05-25T12:53:30.846Z,11.57
2019-05-25T12:55:38.629Z,6.78
2019-05-25T12:57:46.634Z,7.78
2019-05-25T12:59:54.590Z,7.50
2019-05-25T13:02:02.659Z,10.93
2019-05-25T13:04:10.529Z,8.75
2019-05-25T13:06:18.509Z,6.67
2019-05-25T13:08:26.215Z,8.93
2019-05-25T13:10:33.805Z,8.05
2019-05-25T13:12:41.767Z,8.43
2019-05-25T13:14:49.266Z,10.32
2019-05-25T13:16:56.828Z,9.03
2019-05-25T13:19:04.466Z,6.78
2019-05-25T13:21:11.908Z,12.45
2019-05-25T13:23:19.519Z,6.53
2019-05-25T13:25:27.133Z,11.05
2019-05-25T13:27:34.847Z,9.40
2019-05-25T13:29:42.375Z,10.55
2019-05-25T13:31:50.023Z,13.05
2019-05-25T13:33:57.586Z,7.83
2019-05-25T13:36:05.170Z,10.10
2019-05-25T13:38:12.766Z,11.88
2019-05-25T13:40:20.937Z,11.18
2019-05-25T13:42:28.400Z,13.65
2019-05-25T13:44:36.051Z,16.45
2019-05-25T13:46:43.816Z,10.35
2019-05-25T13:48:51.369Z,11.12
2019-05-25T13:50:58.968Z,9.55
2019-05-25T13:53:06.526Z,9.78
2019-05-25T13:55:14.615Z,9.75
2019-05-25T13:57:22.371Z,14.47
2019-05-25T13:59:30.113Z,20.32
2019-05-25T14:01:39.033Z,15.50
2019-05-25T14:03:47.814Z,12.78
2019-05-25T14:05:55.371Z,9.88
2019-05-25T14:08:03.054Z,8.00
2019-05-25T14:10:11.620Z,11.45
2019-05-25T14:12:19.603Z,13.35
2019-05-25T14:14:27.405Z,9.03
2019-05-25T14:16:35.619Z,12.23
2019-05-25T14:18:43.396Z,8.30
2019-05-25T14:20:51.162Z,15.23
2019-05-25T14:22:58.914Z,13.00
2019-05-25T14:25:07.835Z,15.68
2019-05-25T14:27:15.359Z,12.55
2019-05-25T14:29:26.136Z,10.60
2019-05-25T14:31:44.835Z,11.28
2019-05-25T14:33:41.662Z,14.50
2019-05-25T14:35:49.213Z,11.65
2019-05-25T14:37:56.666Z,13.78
2019-05-25T14:40:05.217Z,14.65
2019-05-25T14:42:12.840Z,11.43
2019-05-25T14:44:20.555Z,9.33
2019-05-25T14:46:28.480Z,13.72
2019-05-25T14:48:36.183Z,11.12
2019-05-25T14:50:43.856Z,12.80
2019-05-25T14:52:51.757Z,15.78
2019-05-25T14:54:59.350Z,11.25
2019-05-25T14:57:06.894Z,11.12
2019-05-25T14:59:14.790Z,9.25
2019-05-25T15:01:22.392Z,9.90
2019-05-25T15:03:30.146Z,12.90
2019-05-25T15:05:37.687Z,14.40
2019-05-25T15:07:45.393Z,11.12
2019-05-25T15:09:53.121Z,8.60
2019-05-25T15:12:00.521Z,10.15
2019-05-25T15:14:08.171Z,9.88
2019-05-25T15:16:15.773Z,10.55
2019-05-25T15:18:23.360Z,11.38
2019-05-25T15:20:30.861Z,9.15
2019-05-25T15:22:38.884Z,9.03
2019-05-25T15:24:47.019Z,7.65
2019-05-25T15:26:54.728Z,10.80
2019-05-25T15:29:02.206Z,7.37
2019-05-25T15:31:09.671Z,5.80
2019-05-25T15:33:17.392Z,7.45
2019-05-25T15:35:25.170Z,8.25
2019-05-25T15:37:32.798Z,6.05
2019-05-25T15:39:40.492Z,7.72
2019-05-25T15:41:48.542Z,6.95
2019-05-25T15:43:56.332Z,7.42
2019-05-25T15:46:04.042Z,5.95
2019-05-25T15:48:11.630Z,8.68
2019-05-25T15:50:21.031Z,5.70
2019-05-25T15:52:28.563Z,9.43
2019-05-25T15:54:36.150Z,6.92
2019-05-25T15:56:43.821Z,7.95
2019-05-25T15:58:51.378Z,2.98
2019-05-25T16:00:58.860Z,5.92
2019-05-25T16:03:06.415Z,5.15
2019-05-25T16:05:14.819Z,6.17
2019-05-25T16:07:22.306Z,4.17
2019-05-25T16:09:29.947Z,3.87
2019-05-25T16:11:37.624Z,3.45
2019-05-25T16:13:45.030Z,7.90
2019-05-25T16:15:52.677Z,4.55
2019-05-25T16:18:00.146Z,3.42
2019-05-25T16:20:08.670Z,5.65
2019-05-25T16:22:16.332Z,7.97
2019-05-25T16:24:23.811Z,4.37
2019-05-25T16:26:44.905Z,3.85
2019-05-25T16:28:40.618Z,3.75
2019-05-25T16:30:48.280Z,6.95
2019-05-25T16:33:14.070Z,8.68
2019-05-25T16:35:05.736Z,9.35
2019-05-25T16:37:13.568Z,4.53
2019-05-25T16:39:21.235Z,5.30
2019-05-25T16:41:28.697Z,8.85
2019-05-25T16:43:36.233Z,5.65
2019-05-25T16:45:44.366Z,2.90
2019-05-25T16:47:52.147Z,7.33
2019-05-25T16:49:59.818Z,5.00
2019-05-25T16:52:07.351Z,3.58
2019-05-25T16:54:14.892Z,4.60
2019-05-25T16:56:22.599Z,3.85
2019-05-25T16:58:30.277Z,4.20
2019-05-25T17:00:37.858Z,5.35
2019-05-25T17:02:45.440Z,4.50
2019-05-25T17:04:52.950Z,15.50
2019-05-25T17:07:00.467Z,9.93
2019-05-25T17:09:09.486Z,6.37
2019-05-25T17:11:17.003Z,6.22
2019-05-25T17:13:24.698Z,7.35
2019-05-25T17:15:32.378Z,7.22
2019-05-25T17:17:40.097Z,8.43
2019-05-25T17:19:47.847Z,7.37
2019-05-25T17:21:55.439Z,5.12
2019-05-25T17:24:03.882Z,5.35
2019-05-25T17:26:11.523Z,3.25
2019-05-25T17:28:19.211Z,8.50
2019-05-25T17:30:46.947Z,6.22
2019-05-25T17:32:54.790Z,7.15
2019-05-25T17:35:02.443Z,6.70
2019-05-25T17:37:10.495Z,8.20
2019-05-25T17:39:18.473Z,5.50
2019-05-25T17:41:26.234Z,6.60
2019-05-25T17:43:34.014Z,3.52
2019-05-25T17:45:41.888Z,10.25
2019-05-25T17:47:49.451Z,7.78
2019-05-25T17:49:57.105Z,6.75
2019-05-25T17:52:05.050Z,5.75
2019-05-25T17:54:13.989Z,5.72
2019-05-25T17:56:21.583Z,4.78
2019-05-25T17:58:29.034Z,5.28
2019-05-25T18:00:47.606Z,8.08
2019-05-25T18:02:55.368Z,4.47
2019-05-25T18:05:03.002Z,7.22
2019-05-25T18:07:10.571Z,4.17
2019-05-25T18:09:18.177Z,6.87
2019-05-25T18:11:25.662Z,7.17
2019-05-25T18:13:33.292Z,10.18
2019-05-25T18:15:40.735Z,5.72
2019-05-25T18:17:48.373Z,6.40
2019-05-25T18:19:56.050Z,5.22
2019-05-25T18:22:03.674Z,9.23
2019-05-25T18:24:11.111Z,7.67
2019-05-25T18:26:19.098Z,5.67
2019-05-25T18:28:26.775Z,4.50
2019-05-25T18:30:34.767Z,5.12
2019-05-25T18:32:42.272Z,7.00
2019-05-25T18:34:49.796Z,8.88
2019-05-25T18:36:57.585Z,2.87
2019-05-25T18:39:07.179Z,5.47
2019-05-25T18:41:14.750Z,3.77
2019-05-25T18:43:22.282Z,4.00
2019-05-25T18:45:29.946Z,5.00
2019-05-25T18:47:37.669Z,6.87
2019-05-25T18:49:45.308Z,2.65
2019-05-25T18:51:52.759Z,6.17
2019-05-25T18:54:00.231Z,3.58
2019-05-25T18:56:07.862Z,4.55
2019-05-25T18:58:15.393Z,10.55
2019-05-25T19:00:23.926Z,5.20
2019-05-25T19:02:31.582Z,4.55
2019-05-25T19:04:47.643Z,6.90
2019-05-25T19:06:48.509Z,6.10
2019-05-25T19:08:56.359Z,5.45
2019-05-25T19:11:04.127Z,4.87
2019-05-25T19:13:11.718Z,7.50
2019-05-25T19:15:23.164Z,3.67
2019-05-25T19:17:30.434Z,3.22
2019-05-25T19:19:37.897Z,4.45
2019-05-25T19:21:45.727Z,4.45
2019-05-25T19:23:53.219Z,5.58
2019-05-25T19:26:00.823Z,5.35
2019-05-25T19:28:08.679Z,3.47
2019-05-25T19:30:18.424Z,6.72
2019-05-25T19:32:25.906Z,4.47
2019-05-25T19:34:33.695Z,6.42
2019-05-25T19:36:41.641Z,10.00
2019-05-25T19:38:49.416Z,6.30
2019-05-25T19:40:56.870Z,4.80
2019-05-25T19:43:04.648Z,5.92
2019-05-25T19:45:12.951Z,7.67
2019-05-25T19:47:20.497Z,5.35
2019-05-25T19:49:28.588Z,9.45
2019-05-25T19:51:37.188Z,5.72
2019-05-25T19:53:44.905Z,6.00
2019-05-25T19:55:52.978Z,7.30
2019-05-25T19:58:00.998Z,4.22
2019-05-25T20:00:09.693Z,8.00
2019-05-25T20:02:17.492Z,7.17
2019-05-25T20:04:25.094Z,5.40
2019-05-25T20:06:32.567Z,6.55
2019-05-25T20:08:40.258Z,6.40
2019-05-25T20:10:47.967Z,7.47
2019-05-25T20:12:55.627Z,8.48
2019-05-25T20:15:03.526Z,6.87
2019-05-25T20:17:11.069Z,8.10
2019-05-25T20:19:18.752Z,8.85
2019-05-25T20:21:26.341Z,13.10
2019-05-25T20:23:33.946Z,8.18
2019-05-25T20:25:41.333Z,9.78
2019-05-25T20:27:49.006Z,7.95
2019-05-25T20:29:56.928Z,5.75
2019-05-25T20:32:04.687Z,10.50
2019-05-25T20:34:12.389Z,10.63
2019-05-25T20:36:20.128Z,8.15
2019-05-25T20:38:27.788Z,14.68
2019-05-25T20:40:35.386Z,10.55
2019-05-25T20:42:43.207Z,9.65
2019-05-25T20:44:51.186Z,8.23
2019-05-25T20:46:58.744Z,13.97
2019-05-25T20:49:06.585Z,7.57
2019-05-25T20:51:14.080Z,16.27
2019-05-25T20:53:21.826Z,13.35
2019-05-25T20:55:29.235Z,11.73
2019-05-25T20:57:36.834Z,12.18
2019-05-25T20:59:44.583Z,7.37
2019-05-25T21:01:52.808Z,10.50
2019-05-25T21:04:08.353Z,10.03
2019-05-25T21:06:16.223Z,8.40
2019-05-25T21:08:24.103Z,10.47
2019-05-25T21:10:31.761Z,13.95
2019-05-25T21:12:39.371Z,9.83
2019-05-25T21:14:47.263Z,13.93
2019-05-25T21:16:54.971Z,11.77
2019-05-25T21:19:03.171Z,12.33
2019-05-25T21:21:10.855Z,10.07
2019-05-25T21:23:18.545Z,13.53
2019-05-25T21:25:26.244Z,10.00
2019-05-25T21:27:33.831Z,10.67
2019-05-25T21:29:41.393Z,10.83
2019-05-25T21:31:49.029Z,10.43
2019-05-25T21:33:57.156Z,11.67
2019-05-25T21:36:08.827Z,9.60
2019-05-25T21:38:14.154Z,8.77
2019-05-25T21:40:21.927Z,10.10
2019-05-25T21:42:30.531Z,8.93
2019-05-25T21:44:38.139Z,10.87
2019-05-25T21:46:45.635Z,9.17
2019-05-25T21:48:53.105Z,15.90
2019-05-25T21:51:00.797Z,13.07
2019-05-25T21:53:11.131Z,10.18
2019-05-25T21:55:18.966Z,13.70
2019-05-25T21:57:26.455Z,13.13
2019-05-25T21:59:35.962Z,16.10
2019-05-25T22:01:43.928Z,12.03
2019-05-25T22:03:51.818Z,13.43
2019-05-25T22:05:59.416Z,11.87
2019-05-25T22:08:07.006Z,13.20
2019-05-25T22:10:14.876Z,14.03
2019-05-25T22:12:22.450Z,16.30
2019-05-25T22:14:30.181Z,11.93
2019-05-25T22:16:37.725Z,15.37
2019-05-25T22:18:45.329Z,8.73
2019-05-25T22:20:52.995Z,12.87
2019-05-25T22:23:00.456Z,10.70
2019-05-25T22:25:08.570Z,13.73
2019-05-25T22:27:15.998Z,13.90
2019-05-25T22:29:23.452Z,10.33
2019-05-25T22:31:30.902Z,9.33
2019-05-25T22:33:38.352Z,11.27
2019-05-25T22:35:45.765Z,9.03
2019-05-25T22:37:53.252Z,9.57
2019-05-25T22:40:00.775Z,9.67
2019-05-25T22:42:08.417Z,7.63
2019-05-25T22:44:15.862Z,11.93
2019-05-25T22:46:23.583Z,13.73
2019-05-25T22:48:31.016Z,13.13
2019-05-25T22:50:51.601Z,9.63
2019-05-25T22:52:59.231Z,13.77
2019-05-25T22:55:07.710Z,11.13
2019-05-25T22:57:15.160Z,17.93
2019-05-25T22:59:22.616Z,9.20
2019-05-25T23:01:30.125Z,12.33
2019-05-25T23:03:37.635Z,12.73
2019-05-25T23:05:45.123Z,9.53
2019-05-25T23:07:52.547Z,12.17
2019-05-25T23:10:00.046Z,13.03
2019-05-25T23:12:07.562Z,10.10
2019-05-25T23:14:14.969Z,11.77
2019-05-25T23:16:22.605Z,10.97
2019-05-25T23:18:29.967Z,12.87
2019-05-25T23:20:37.362Z,12.13
2019-05-25T23:22:47.616Z,11.30
2019-05-25T23:24:55.235Z,13.70
2019-05-25T23:27:02.670Z,14.03
2019-05-25T23:29:10.061Z,13.33
2019-05-25T23:31:17.461Z,12.20
2019-05-25T23:33:24.909Z,16.40
2019-05-25T23:35:32.504Z,14.03
2019-05-25T23:37:39.866Z,11.40
2019-05-25T23:39:47.480Z,14.60
2019-05-25T23:41:55.108Z,14.37
2019-05-25T23:44:02.590Z,14.57
2019-05-25T23:46:10.131Z,14.57
2019-05-25T23:48:17.743Z,13.70
2019-05-25T23:50:25.205Z,13.93
2019-05-25T23:52:32.681Z,13.00
2019-05-25T23:54:40.374Z,15.33
2019-05-25T23:56:47.809Z,15.27
2019-05-25T23:58:55.253Z,22.13
